createdAt,value
2022-09-03T00:01:06.254Z,16.30
2022-09-03T00:03:44.278Z,16.20
2022-09-03T00:06:30.409Z,16.20
2022-09-03T00:09:07.374Z,16.10
2022-09-03T00:11:48.062Z,16.00
2022-09-03T00:14:41.040Z,16.00
2022-09-03T00:17:15.085Z,15.90
2022-09-03T00:19:57.564Z,15.80
2022-09-03T00:22:30.353Z,15.70
2022-09-03T00:25:01.144Z,15.70
2022-09-03T00:27:29.864Z,15.60
2022-09-03T00:30:16.985Z,15.60
2022-09-03T00:32:56.963Z,15.50
2022-09-03T00:35:32.435Z,15.50
2022-09-03T00:38:00.584Z,15.40
2022-09-03T00:40:42.680Z,15.40
2022-09-03T00:43:46.643Z,15.30
2022-09-03T00:46:31.941Z,15.30
2022-09-03T00:49:17.093Z,15.20
2022-09-03T00:52:25.015Z,15.20
2022-09-03T00:55:19.251Z,15.10
2022-09-03T00:58:10.175Z,15.00
2022-09-03T01:00:42.761Z,15.00
2022-09-03T01:03:28.260Z,14.90
2022-09-03T01:06:40.399Z,14.90
2022-09-03T01:09:39.569Z,14.80
2022-09-03T01:12:35.246Z,14.80
2022-09-03T01:15:11.157Z,14.70
2022-09-03T01:17:59.783Z,14.60
2022-09-03T01:20:46.330Z,14.60
2022-09-03T01:23:20.436Z,14.70
2022-09-03T01:25:52.624Z,14.60
2022-09-03T01:28:54.970Z,14.50
2022-09-03T01:32:01.282Z,14.40
2022-09-03T01:34:57.523Z,14.40
2022-09-03T01:37:42.805Z,14.30
2022-09-03T01:40:12.600Z,14.30
2022-09-03T01:42:54.471Z,14.20
2022-09-03T01:45:40.507Z,14.20
2022-09-03T01:48:26.582Z,14.20
2022-09-03T01:51:09.549Z,14.20
2022-09-03T01:54:18.151Z,14.10
2022-09-03T01:57:01.192Z,14.10
2022-09-03T01:59:42.700Z,14.10
2022-09-03T02:02:21.434Z,14.00
2022-09-03T02:05:09.585Z,14.00
2022-09-03T02:07:41.032Z,14.00
2022-09-03T02:10:37.206Z,14.00
2022-09-03T02:13:12.231Z,13.90
2022-09-03T02:15:43.435Z,13.90
2022-09-03T02:18:33.862Z,13.80
2022-09-03T02:21:01.201Z,13.80
2022-09-03T02:23:29.039Z,13.80
2022-09-03T02:25:58.877Z,13.80
2022-09-03T02:28:28.044Z,13.70
2022-09-03T02:30:55.572Z,13.70
2022-09-03T02:33:22.849Z,13.80
2022-09-03T02:35:49.825Z,13.60
2022-09-03T02:38:27.100Z,13.60
2022-09-03T02:40:54.592Z,13.50
2022-09-03T02:43:26.053Z,13.50
2022-09-03T02:45:57.560Z,13.50
2022-09-03T02:48:25.621Z,13.40
2022-09-03T02:50:52.993Z,13.40
2022-09-03T02:53:20.396Z,13.30
2022-09-03T02:55:47.821Z,13.30
2022-09-03T02:58:15.074Z,13.20
2022-09-03T03:00:42.068Z,13.20
2022-09-03T03:03:08.838Z,13.20
2022-09-03T03:05:49.001Z,13.10
2022-09-03T03:08:17.155Z,13.10
2022-09-03T03:10:52.206Z,13.00
2022-09-03T03:13:19.154Z,13.00
2022-09-03T03:15:47.949Z,13.00
2022-09-03T03:18:17.503Z,13.00
2022-09-03T03:20:44.812Z,13.00
2022-09-03T03:23:11.864Z,12.90
2022-09-03T03:25:40.348Z,13.00
2022-09-03T03:28:08.136Z,12.90
2022-09-03T03:30:39.942Z,12.90
2022-09-03T03:33:09.962Z,12.90
2022-09-03T03:35:37.122Z,12.80
2022-09-03T03:38:05.293Z,12.80
2022-09-03T03:40:32.852Z,12.80
2022-09-03T03:42:59.912Z,12.70
2022-09-03T03:45:27.450Z,12.70
2022-09-03T03:47:58.332Z,12.70
2022-09-03T03:50:29.598Z,12.70
2022-09-03T03:53:01.036Z,12.60
2022-09-03T03:55:28.747Z,12.60
2022-09-03T03:58:00.970Z,12.60
2022-09-03T04:00:30.571Z,12.50
2022-09-03T04:02:59.221Z,12.50
2022-09-03T04:05:26.189Z,12.50
2022-09-03T04:07:53.727Z,12.40
2022-09-03T04:10:20.686Z,12.40
2022-09-03T04:12:47.664Z,12.40
2022-09-03T04:15:17.234Z,12.40
2022-09-03T04:17:44.240Z,12.30
2022-09-03T04:20:11.126Z,12.40
2022-09-03T04:22:38.058Z,12.30
2022-09-03T04:25:05.717Z,12.30
2022-09-03T04:27:32.762Z,12.30
2022-09-03T04:29:59.621Z,12.30
2022-09-03T04:32:46.370Z,12.20
2022-09-03T04:35:13.144Z,12.20
2022-09-03T04:37:40.390Z,12.20
2022-09-03T04:40:08.007Z,12.20
2022-09-03T04:42:35.006Z,12.20
2022-09-03T04:45:02.355Z,12.20
2022-09-03T04:47:29.345Z,12.20
2022-09-03T04:49:56.184Z,12.10
2022-09-03T04:52:25.785Z,12.10
2022-09-03T04:54:52.974Z,12.10
2022-09-03T04:57:19.874Z,12.10
2022-09-03T04:59:47.371Z,12.10
2022-09-03T05:02:14.495Z,12.00
2022-09-03T05:04:42.567Z,12.10
2022-09-03T05:07:09.429Z,12.00
2022-09-03T05:09:36.317Z,12.10
2022-09-03T05:12:03.483Z,12.00
2022-09-03T05:14:30.609Z,12.10
2022-09-03T05:16:57.611Z,12.10
2022-09-03T05:19:24.662Z,12.10
2022-09-03T05:21:51.581Z,12.10
2022-09-03T05:24:18.769Z,12.10
2022-09-03T05:26:45.705Z,12.10
2022-09-03T05:29:12.686Z,12.20
2022-09-03T05:31:40.262Z,12.20
2022-09-03T05:34:08.355Z,12.20
2022-09-03T05:36:37.446Z,12.30
2022-09-03T05:39:06.082Z,12.40
2022-09-03T05:41:36.595Z,12.30
2022-09-03T05:44:04.309Z,12.40
2022-09-03T05:46:32.858Z,12.60
2022-09-03T05:49:05.036Z,12.70
2022-09-03T05:51:33.210Z,12.60
2022-09-03T05:54:00.222Z,12.70
2022-09-03T05:56:30.486Z,12.80
2022-09-03T05:59:02.276Z,12.80
2022-09-03T06:01:34.828Z,12.90
2022-09-03T06:04:08.520Z,13.00
2022-09-03T06:06:38.085Z,13.10
2022-09-03T06:09:07.918Z,13.10
2022-09-03T06:11:37.557Z,13.20
2022-09-03T06:14:08.698Z,13.30
2022-09-03T06:16:39.096Z,13.30
2022-09-03T06:19:10.327Z,13.40
2022-09-03T06:21:45.778Z,13.60
2022-09-03T06:24:16.453Z,13.60
2022-09-03T06:26:44.261Z,13.70
2022-09-03T06:29:11.951Z,13.80
2022-09-03T06:31:40.371Z,13.90
2022-09-03T06:34:07.637Z,14.10
2022-09-03T06:36:38.222Z,14.70
2022-09-03T06:39:05.293Z,15.40
2022-09-03T06:41:35.171Z,16.50
2022-09-03T06:44:11.766Z,17.70
2022-09-03T06:46:45.482Z,18.90
2022-09-03T06:49:13.747Z,20.10
2022-09-03T06:51:41.587Z,21.10
2022-09-03T06:54:11.048Z,21.90
2022-09-03T06:56:40.790Z,22.40
2022-09-03T06:59:13.728Z,22.90
2022-09-03T07:01:44.692Z,23.20
2022-09-03T07:04:13.922Z,23.40
2022-09-03T07:06:43.327Z,23.40
2022-09-03T07:09:58.634Z,23.30
2022-09-03T07:12:25.983Z,22.90
2022-09-03T07:14:58.545Z,22.50
2022-09-03T07:17:35.260Z,22.40
2022-09-03T07:20:38.040Z,22.20
2022-09-03T07:23:06.769Z,22.30
2022-09-03T07:25:54.538Z,22.30
2022-09-03T07:28:21.996Z,22.40
2022-09-03T07:30:52.759Z,22.60
2022-09-03T07:33:21.538Z,22.90
2022-09-03T07:35:53.304Z,23.30
2022-09-03T07:38:29.455Z,23.70
2022-09-03T07:41:05.765Z,24.00
2022-09-03T07:43:49.350Z,24.30
2022-09-03T07:46:25.231Z,24.50
2022-09-03T07:50:04.171Z,24.80
2022-09-03T07:52:34.446Z,25.10
2022-09-03T08:01:46.646Z,26.20
2022-09-03T08:12:36.483Z,26.90
2022-09-03T08:29:25.024Z,27.30
2022-09-03T08:31:54.823Z,27.40
2022-09-03T08:34:26.817Z,27.50
2022-09-03T08:36:54.959Z,27.60
2022-09-03T08:39:24.502Z,27.80
2022-09-03T08:41:52.047Z,27.90
2022-09-03T08:44:47.666Z,28.10
2022-09-03T08:47:41.731Z,28.10
2022-09-03T08:50:23.528Z,28.10
2022-09-03T08:53:14.243Z,28.00
2022-09-03T08:56:07.997Z,28.00
2022-09-03T08:58:38.752Z,28.00
2022-09-03T09:01:22.815Z,28.00
2022-09-03T09:03:54.127Z,28.10
2022-09-03T09:06:46.573Z,28.10
2022-09-03T09:09:34.701Z,28.00
2022-09-03T09:12:35.782Z,27.90
2022-09-03T09:15:12.528Z,27.90
2022-09-03T09:18:17.474Z,27.90
2022-09-03T09:20:52.587Z,28.00
2022-09-03T09:23:36.247Z,28.00
2022-09-03T09:26:21.813Z,28.00
2022-09-03T09:28:58.446Z,28.00
2022-09-03T09:34:27.068Z,27.80
2022-09-03T09:36:56.161Z,27.90
2022-09-03T09:39:23.968Z,27.80
2022-09-03T09:42:23.971Z,27.80
2022-09-03T09:45:03.222Z,27.80
2022-09-03T09:47:38.654Z,27.80
2022-09-03T09:50:25.125Z,27.80
2022-09-03T09:53:17.271Z,27.90
2022-09-03T09:55:56.623Z,28.50
2022-09-03T09:58:26.095Z,28.50
2022-09-03T10:01:22.806Z,28.20
2022-09-03T10:04:01.443Z,28.10
2022-09-03T10:06:49.298Z,28.10
2022-09-03T10:09:18.127Z,28.10
2022-09-03T10:11:56.079Z,28.10
2022-09-03T10:14:37.171Z,28.10
2022-09-03T10:17:31.813Z,28.20
2022-09-03T10:20:31.165Z,28.10
2022-09-03T10:23:06.697Z,27.80
2022-09-03T10:26:10.259Z,27.60
2022-09-03T10:28:43.126Z,27.60
2022-09-03T10:31:18.073Z,27.50
2022-09-03T10:33:59.302Z,27.60
2022-09-03T10:36:45.103Z,27.70
2022-09-03T10:39:43.317Z,27.60
2022-09-03T10:42:52.497Z,27.50
2022-09-03T10:45:35.171Z,27.50
2022-09-03T10:48:38.609Z,27.40
2022-09-03T10:51:12.439Z,27.40
2022-09-03T10:54:05.888Z,27.40
2022-09-03T10:56:37.738Z,27.40
2022-09-03T11:02:22.018Z,27.30
2022-09-03T11:05:18.341Z,27.20
2022-09-03T11:07:49.738Z,27.30
2022-09-03T11:10:31.250Z,27.40
2022-09-03T11:13:10.715Z,28.00
2022-09-03T11:16:02.535Z,27.90
2022-09-03T11:18:52.246Z,27.70
2022-09-03T11:21:23.520Z,27.60
2022-09-03T11:24:16.464Z,27.70
2022-09-03T11:26:52.307Z,27.70
2022-09-03T11:29:31.026Z,27.90
2022-09-03T11:32:12.813Z,27.90
2022-09-03T11:34:56.564Z,28.10
2022-09-03T11:37:33.234Z,28.20
2022-09-03T11:40:39.196Z,28.30
2022-09-03T11:43:35.012Z,28.10
2022-09-03T11:46:17.941Z,28.20
2022-09-03T11:49:14.490Z,28.20
2022-09-03T11:51:45.593Z,28.30
2022-09-03T11:54:24.046Z,28.40
2022-09-03T11:56:53.360Z,28.30
2022-09-03T11:59:27.535Z,28.40
2022-09-03T12:02:05.762Z,28.40
2022-09-03T12:04:44.031Z,28.50
2022-09-03T12:07:33.045Z,28.60
2022-09-03T12:10:12.066Z,28.60
2022-09-03T12:13:01.330Z,28.70
2022-09-03T12:16:22.173Z,28.80
2022-09-03T12:18:53.067Z,28.90
2022-09-03T12:21:20.718Z,28.90
2022-09-03T12:23:50.467Z,28.80
2022-09-03T12:26:20.672Z,28.90
2022-09-03T12:29:01.210Z,28.90
2022-09-03T12:31:31.102Z,29.00
2022-09-03T12:34:15.331Z,29.10
2022-09-03T12:36:44.925Z,29.10
2022-09-03T12:39:19.030Z,29.20
2022-09-03T12:41:55.792Z,29.10
2022-09-03T12:44:31.983Z,29.30
2022-09-03T12:50:07.344Z,29.40
2022-09-03T12:52:42.748Z,29.30
2022-09-03T12:55:15.804Z,29.40
2022-09-03T12:58:23.687Z,29.50
2022-09-03T13:01:04.883Z,29.40
2022-09-03T13:03:54.435Z,29.40
2022-09-03T13:06:29.710Z,29.40
2022-09-03T13:09:09.741Z,29.50
2022-09-03T13:11:43.336Z,29.60
2022-09-03T13:15:23.096Z,29.70
2022-09-03T13:18:07.374Z,29.70
2022-09-03T13:21:21.352Z,29.60
2022-09-03T13:24:28.981Z,29.60
2022-09-03T13:27:03.726Z,29.60
2022-09-03T13:29:55.875Z,29.70
2022-09-03T13:33:31.601Z,29.80
2022-09-03T13:38:48.333Z,29.80
2022-09-03T13:44:39.864Z,29.30
2022-09-03T13:47:32.754Z,29.20
2022-09-03T13:50:27.038Z,29.20
2022-09-03T13:53:26.766Z,29.30
2022-09-03T13:55:57.997Z,29.40
2022-09-03T13:58:32.199Z,29.50
2022-09-03T14:00:59.303Z,29.60
2022-09-03T14:04:08.956Z,29.60
2022-09-03T14:06:45.165Z,29.70
2022-09-03T14:09:35.029Z,29.80
2022-09-03T14:12:20.696Z,30.00
2022-09-03T14:15:00.884Z,30.00
2022-09-03T14:17:49.310Z,30.10
2022-09-03T14:20:47.705Z,30.00
2022-09-03T14:23:42.947Z,29.90
2022-09-03T14:26:38.115Z,29.80
2022-09-03T14:29:30.592Z,29.80
2022-09-03T14:32:24.260Z,29.90
2022-09-03T14:35:00.264Z,29.90
2022-09-03T14:37:54.513Z,30.00
2022-09-03T14:40:32.154Z,30.20
2022-09-03T14:43:32.803Z,30.30
2022-09-03T14:46:14.954Z,30.40
2022-09-03T14:48:56.171Z,30.40
2022-09-03T14:51:50.453Z,30.40
2022-09-03T14:54:52.516Z,30.40
2022-09-03T14:57:49.305Z,30.30
2022-09-03T15:00:31.879Z,30.30
2022-09-03T15:03:03.953Z,30.20
2022-09-03T15:05:37.435Z,30.20
2022-09-03T15:08:33.899Z,30.20
2022-09-03T15:11:04.112Z,30.20
2022-09-03T15:13:36.475Z,30.30
2022-09-03T15:16:09.539Z,30.30
2022-09-03T15:19:21.455Z,30.30
2022-09-03T15:22:08.284Z,30.50
2022-09-03T15:24:44.021Z,30.20
2022-09-03T15:27:53.356Z,30.10
2022-09-03T15:30:24.605Z,30.10
2022-09-03T15:32:57.934Z,29.90
2022-09-03T15:35:43.904Z,29.70
2022-09-03T15:38:35.176Z,29.50
2022-09-03T15:41:11.997Z,29.30
2022-09-03T15:43:43.406Z,29.20
2022-09-03T15:46:32.257Z,29.20
2022-09-03T15:49:17.577Z,29.30
2022-09-03T15:52:01.526Z,29.30
2022-09-03T15:54:54.869Z,29.50
2022-09-03T15:57:42.336Z,29.60
2022-09-03T16:00:21.262Z,29.70
2022-09-03T16:03:10.527Z,29.70
2022-09-03T16:06:03.063Z,29.90
2022-09-03T16:08:42.569Z,29.80
2022-09-03T16:11:36.694Z,29.80
2022-09-03T16:14:31.086Z,29.90
2022-09-03T16:17:05.815Z,29.80
2022-09-03T16:19:44.022Z,29.70
2022-09-03T16:22:35.495Z,29.60
2022-09-03T16:25:07.470Z,29.70
2022-09-03T16:27:42.052Z,29.70
2022-09-03T16:30:36.931Z,29.60
2022-09-03T16:33:31.811Z,29.60
2022-09-03T16:36:06.812Z,29.60
2022-09-03T16:39:07.279Z,29.50
2022-09-03T16:41:52.903Z,29.40
2022-09-03T16:44:46.675Z,29.30
2022-09-03T16:47:31.576Z,29.20
2022-09-03T16:50:11.931Z,29.00
2022-09-03T16:52:46.122Z,28.80
2022-09-03T16:55:36.842Z,28.80
2022-09-03T16:58:30.243Z,28.80
2022-09-03T17:01:23.747Z,28.70
2022-09-03T17:04:09.026Z,28.60
2022-09-03T17:06:56.337Z,28.50
2022-09-03T17:10:05.630Z,28.40
2022-09-03T17:13:10.925Z,28.40
2022-09-03T17:16:09.007Z,28.10
2022-09-03T17:19:28.017Z,28.30
2022-09-03T17:22:18.185Z,27.80
2022-09-03T17:25:00.454Z,27.50
2022-09-03T17:28:00.330Z,27.50
2022-09-03T17:30:57.652Z,27.30
2022-09-03T17:33:39.214Z,27.10
2022-09-03T17:36:14.448Z,27.10
2022-09-03T17:39:10.964Z,26.90
2022-09-03T17:41:54.526Z,26.80
2022-09-03T17:44:42.415Z,26.70
2022-09-03T17:47:43.226Z,26.60
2022-09-03T17:50:25.715Z,26.50
2022-09-03T17:53:04.124Z,26.40
2022-09-03T17:55:54.884Z,26.30
2022-09-03T17:58:33.192Z,26.40
2022-09-03T18:01:22.364Z,26.10
2022-09-03T18:04:16.044Z,26.00
2022-09-03T18:07:18.251Z,25.90
2022-09-03T18:10:08.243Z,25.20
2022-09-03T18:12:59.770Z,25.40
2022-09-03T18:15:53.802Z,25.40
2022-09-03T18:18:42.232Z,25.30
2022-09-03T18:21:36.826Z,25.20
2022-09-03T18:24:52.676Z,25.10
2022-09-03T18:28:19.259Z,24.70
2022-09-03T18:31:06.123Z,24.80
2022-09-03T18:33:53.269Z,24.20
2022-09-03T18:36:50.994Z,24.60
2022-09-03T18:39:48.444Z,24.80
2022-09-03T18:42:55.279Z,23.90
2022-09-03T18:47:05.815Z,23.70
2022-09-03T18:49:39.904Z,24.20
2022-09-03T18:52:41.339Z,24.70
2022-09-03T18:55:46.351Z,24.00
2022-09-03T18:58:54.668Z,23.40
2022-09-03T19:01:57.986Z,23.80
2022-09-03T19:05:12.414Z,23.70
2022-09-03T19:08:33.233Z,23.00
2022-09-03T19:11:22.607Z,23.50
2022-09-03T19:14:10.953Z,23.40
2022-09-03T19:17:12.675Z,23.30
2022-09-03T19:20:07.415Z,23.10
2022-09-03T19:23:01.276Z,23.00
2022-09-03T19:25:49.701Z,23.00
2022-09-03T19:28:50.256Z,22.30
2022-09-03T19:31:58.679Z,22.80
2022-09-03T19:34:47.456Z,22.70
2022-09-03T19:37:47.270Z,22.40
2022-09-03T19:40:57.992Z,22.50
2022-09-03T19:44:26.791Z,22.40
2022-09-03T19:47:15.199Z,22.30
2022-09-03T19:50:31.616Z,22.80
2022-09-03T19:53:31.691Z,22.30
2022-09-03T19:56:25.008Z,22.10
2022-09-03T19:59:25.153Z,21.90
2022-09-03T20:02:14.120Z,22.30
2022-09-03T20:05:15.291Z,21.80
2022-09-03T20:08:05.595Z,22.00
2022-09-03T20:10:36.554Z,21.90
2022-09-03T20:13:15.604Z,22.60
2022-09-03T20:15:47.587Z,20.70
2022-09-03T20:18:45.668Z,21.70
2022-09-03T20:21:44.160Z,21.70
2022-09-03T20:24:50.275Z,21.40
2022-09-03T20:27:32.480Z,21.20
2022-09-03T20:30:08.126Z,20.70
2022-09-03T20:33:07.260Z,21.10
2022-09-03T20:35:49.837Z,21.60
2022-09-03T20:38:54.772Z,21.00
2022-09-03T20:41:46.229Z,21.70
2022-09-03T20:44:32.386Z,20.90
2022-09-03T20:47:29.789Z,20.80
2022-09-03T20:50:35.178Z,20.80
2022-09-03T20:53:30.444Z,20.70
2022-09-03T20:56:36.711Z,20.60
2022-09-03T20:59:25.404Z,20.60
2022-09-03T21:02:10.152Z,20.50
2022-09-03T21:05:13.970Z,20.40
2022-09-03T21:08:32.506Z,20.40
2022-09-03T21:11:14.914Z,20.40
2022-09-03T21:14:02.323Z,20.30
2022-09-03T21:16:59.595Z,20.30
2022-09-03T21:19:44.660Z,20.30
2022-09-03T21:22:44.466Z,20.20
2022-09-03T21:25:30.761Z,20.20
2022-09-03T21:28:09.801Z,20.10
2022-09-03T21:30:50.074Z,20.10
2022-09-03T21:33:39.992Z,20.10
2022-09-03T21:36:17.467Z,20.10
2022-09-03T21:38:56.545Z,20.00
2022-09-03T21:41:32.958Z,20.00
2022-09-03T21:44:23.468Z,20.00
2022-09-03T21:46:59.915Z,19.90
2022-09-03T21:49:34.400Z,19.90
2022-09-03T21:52:24.338Z,19.90
2022-09-03T21:54:56.514Z,19.90
2022-09-03T21:57:42.606Z,19.80
2022-09-03T22:00:36.973Z,19.90
2022-09-03T22:03:14.555Z,19.80
2022-09-03T22:06:00.398Z,19.70
2022-09-03T22:08:51.530Z,19.60
2022-09-03T22:11:41.348Z,19.50
2022-09-03T22:14:16.473Z,19.40
2022-09-03T22:17:04.893Z,19.30
2022-09-03T22:19:37.826Z,19.30
2022-09-03T22:22:35.544Z,19.20
2022-09-03T22:25:09.349Z,19.10
2022-09-03T22:27:47.359Z,19.00
2022-09-03T22:30:24.457Z,18.90
2022-09-03T22:33:03.493Z,18.90
2022-09-03T22:36:14.653Z,18.90
2022-09-03T22:39:21.252Z,18.80
2022-09-03T22:41:58.343Z,18.80
2022-09-03T22:45:14.019Z,18.70
2022-09-03T22:48:03.909Z,18.70
2022-09-03T22:50:37.830Z,18.70
2022-09-03T22:53:30.671Z,18.60
2022-09-03T22:56:28.219Z,18.60
2022-09-03T22:59:22.719Z,18.60
2022-09-03T23:02:09.354Z,18.50
2022-09-03T23:04:51.872Z,18.50
2022-09-03T23:07:41.405Z,18.50
2022-09-03T23:10:24.339Z,18.50
2022-09-03T23:13:23.051Z,18.50
2022-09-03T23:16:28.183Z,18.50
2022-09-03T23:18:58.683Z,18.40
2022-09-03T23:21:41.265Z,18.40
2022-09-03T23:24:28.250Z,18.40
2022-09-03T23:26:56.005Z,18.40
2022-09-03T23:29:44.081Z,18.40
2022-09-03T23:32:11.818Z,18.30
2022-09-03T23:34:41.263Z,18.20
2022-09-03T23:37:33.647Z,18.20
2022-09-03T23:40:27.432Z,18.20
2022-09-03T23:43:24.561Z,18.10
2022-09-03T23:46:18.420Z,18.10
2022-09-03T23:49:23.958Z,18.00
2022-09-03T23:51:58.934Z,18.00
2022-09-03T23:54:41.713Z,17.90
2022-09-03T23:57:43.295Z,17.90
